Time;durP1;ratioP1;P1;durP2;ratioP2;P2;SDS_P1;SDS_P2;PMS_P1;PMS_P2;Temp;Humidity;BMP_temperature;BMP_pressure;BME280_temperature;BME280_humidity;BME280_pressure;Samples;Min_cycle;Max_cycle;Signal;HPM_P1;HPM_P2
2021/09/01 00:00:55;;;;;;;;;;;;;;;12.96;99.86;97868.22;1684008;85;20788;-76
2021/09/01 00:03:21;;;;;;;;;;;;;;;12.97;99.87;97866.30;1683872;85;20228;-76
2021/09/01 00:05:47;;;;;;;;;;;;;;;12.94;100.00;97869.08;1684104;85;20145;-71
2021/09/01 00:08:13;;;;;;;;;;;;;;;12.95;99.95;97862.53;1684010;84;20179;-76
2021/09/01 00:10:38;;;;;;;;;;;;;;;12.96;99.67;97863.34;1684064;85;21624;-72
2021/09/01 00:13:04;;;;;;;;;;;;;;;12.95;99.75;97861.73;1683795;85;20196;-76
2021/09/01 00:15:30;;;;;;;;;;;;;;;12.96;99.69;97865.50;1684026;84;20168;-76
2021/09/01 00:17:56;;;;;;;;;;;;;;;12.95;99.87;97871.25;1684108;85;20212;-71
2021/09/01 00:20:22;;;;;;;;;;;;;;;12.91;100.00;97869.69;1683728;85;20177;-72
2021/09/01 00:22:48;;;;;;;;;;;;;;;12.92;100.00;97866.41;1683845;84;21116;-76
2021/09/01 00:25:14;;;;;;;;;;;;;;;12.94;99.73;97871.00;1683598;85;20248;-72
2021/09/01 00:27:40;;;;;;;;;;;;;;;12.93;99.86;97873.46;1684101;85;20219;-72
2021/09/01 00:30:06;;;;;;;;;;;;;;;12.93;99.71;97871.55;1683820;85;20153;-72
2021/09/01 00:32:32;;;;;;;;;;;;;;;12.92;100.00;97880.01;1684049;85;20173;-77
2021/09/01 00:34:58;;;;;;;;;;;;;;;12.88;100.00;97882.50;1683770;85;21084;-76
2021/09/01 00:37:23;;;;;;;;;;;;;;;12.87;100.00;97880.89;1684056;85;20164;-76
2021/09/01 00:39:49;;;;;;;;;;;;;;;12.88;100.00;97882.50;1683806;85;20200;-72
2021/09/01 00:42:15;;;;;;;;;;;;;;;12.90;100.00;97883.03;1684051;85;20433;-76
2021/09/01 00:44:41;;;;;;;;;;;;;;;12.91;99.59;97887.36;1683651;85;20212;-72
2021/09/01 00:47:07;;;;;;;;;;;;;;;12.89;100.00;97891.47;1684135;85;21148;-76
2021/09/01 00:49:33;;;;;;;;;;;;;;;12.90;100.00;97888.47;1683668;85;20184;-72
2021/09/01 00:51:59;;;;;;;;;;;;;;;12.90;100.00;97892.55;1684037;85;20275;-76
2021/09/01 00:54:26;;;;;;;;;;;;;;;12.89;100.00;97896.91;1683878;85;20372;-76
2021/09/01 00:56:53;;;;;;;;;;;;;;;12.89;100.00;97892.27;1684061;85;20167;-76
2021/09/01 00:59:26;;;;;;;;;;;;;;;12.91;100.00;97898.80;1683781;85;21058;-72
2021/09/01 01:01:52;;;;;;;;;;;;;;;12.96;100.00;97898.69;1683883;85;20134;-76
2021/09/01 01:04:18;;;;;;;;;;;;;;;12.93;100.00;97903.38;1683860;84;20692;-76
2021/09/01 01:06:44;;;;;;;;;;;;;;;12.95;100.00;97907.41;1684212;85;20156;-74
2021/09/01 01:09:10;;;;;;;;;;;;;;;12.97;100.00;97907.10;1683783;85;20213;-72
2021/09/01 01:11:38;;;;;;;;;;;;;;;12.97;100.00;97906.55;1683914;85;21053;-72
2021/09/01 01:14:03;;;;;;;;;;;;;;;12.97;100.00;97902.47;1683123;84;20161;-72
2021/09/01 01:16:30;;;;;;;;;;;;;;;12.95;100.00;97905.23;1684007;85;20267;-72
2021/09/01 01:18:56;;;;;;;;;;;;;;;12.95;100.00;97901.16;1683792;85;20155;-72
2021/09/01 01:21:26;;;;;;;;;;;;;;;12.97;100.00;97903.02;1684013;85;20245;-71
2021/09/01 01:23:53;;;;;;;;;;;;;;;13.03;99.86;97905.11;1683819;85;21059;-76
2021/09/01 01:26:19;;;;;;;;;;;;;;;13.03;100.00;97902.39;1683951;85;20293;-72
2021/09/01 01:28:57;;;;;;;;;;;;;;;13.00;99.99;97902.45;1683863;85;20168;-76
2021/09/01 01:31:23;;;;;;;;;;;;;;;13.02;100.00;97902.95;1682856;85;20449;-72
2021/09/01 01:33:49;;;;;;;;;;;;;;;12.98;100.00;97913.59;1683935;84;20196;-72
2021/09/01 01:36:15;;;;;;;;;;;;;;;12.99;99.62;97915.24;1683991;85;21043;-72
2021/09/01 01:38:40;;;;;;;;;;;;;;;13.01;99.64;97919.57;1683825;85;20192;-76
2021/09/01 01:41:06;;;;;;;;;;;;;;;12.97;99.57;97917.42;1684022;85;20744;-72
2021/09/01 01:43:36;;;;;;;;;;;;;;;12.97;99.64;97922.06;1683916;85;20205;-76
2021/09/01 01:45:59;;;;;;;;;;;;;;;12.96;99.35;97917.17;1679975;84;20138;-72
2021/09/01 01:48:25;;;;;;;;;;;;;;;13.00;99.73;97924.20;1679788;84;21193;-76
2021/09/01 01:50:51;;;;;;;;;;;;;;;13.02;99.46;97921.98;1679449;84;20208;-71
2021/09/01 01:53:16;;;;;;;;;;;;;;;12.99;99.38;97922.59;1679822;84;20276;-76
2021/09/01 01:55:42;;;;;;;;;;;;;;;12.99;99.38;97921.23;1679616;84;20133;-76
2021/09/01 01:58:08;;;;;;;;;;;;;;;12.99;99.32;97922.04;1679702;85;20176;-71
2021/09/01 02:00:34;;;;;;;;;;;;;;;13.01;99.37;97919.02;1679537;84;21943;-77
2021/09/01 02:02:59;;;;;;;;;;;;;;;13.06;99.35;97925.72;1679680;84;20228;-77
2021/09/01 02:05:25;;;;;;;;;;;;;;;13.07;99.04;97927.87;1679680;85;20176;-77
2021/09/01 02:07:51;;;;;;;;;;;;;;;13.04;98.85;97923.85;1679834;84;20138;-71
2021/09/01 02:10:18;;;;;;;;;;;;;;;13.04;98.78;97921.69;1679570;84;20141;-71
2021/09/01 02:12:44;;;;;;;;;;;;;;;13.02;98.53;97926.07;1679804;84;21759;-71
2021/09/01 02:15:10;;;;;;;;;;;;;;;12.99;98.53;97926.67;1679496;84;20689;-71
2021/09/01 02:17:35;;;;;;;;;;;;;;;12.96;98.68;97925.34;1679883;84;20559;-76
2021/09/01 02:20:02;;;;;;;;;;;;;;;12.91;99.14;97934.15;1679504;84;20625;-77
2021/09/01 02:22:28;;;;;;;;;;;;;;;12.92;98.65;97926.24;1679845;84;20138;-77
2021/09/01 02:24:54;;;;;;;;;;;;;;;12.86;99.30;97931.50;1679645;84;21070;-77
2021/09/01 02:27:19;;;;;;;;;;;;;;;12.79;99.41;97936.50;1679655;84;20216;-77
2021/09/01 02:29:45;;;;;;;;;;;;;;;12.76;99.46;97931.66;1679621;84;20232;-77
2021/09/01 02:32:11;;;;;;;;;;;;;;;12.79;99.18;97931.06;1679804;84;20184;-71
2021/09/01 02:34:37;;;;;;;;;;;;;;;12.77;99.31;97934.08;1679657;84;20228;-76
2021/09/01 02:37:03;;;;;;;;;;;;;;;12.77;99.70;97935.44;1679732;84;21045;-72
2021/09/01 02:39:29;;;;;;;;;;;;;;;12.80;99.24;97929.95;1679451;84;20422;-71
2021/09/01 02:41:54;;;;;;;;;;;;;;;12.78;100.00;97930.81;1679875;84;20299;-76
2021/09/01 02:44:20;;;;;;;;;;;;;;;12.79;99.44;97936.50;1679622;84;20605;-72
2021/09/01 02:46:46;;;;;;;;;;;;;;;12.74;99.77;97936.59;1684040;85;20188;-71
2021/09/01 02:49:12;;;;;;;;;;;;;;;12.74;99.83;97938.77;1683653;85;21168;-76
2021/09/01 02:51:38;;;;;;;;;;;;;;;12.74;99.57;97940.12;1683828;85;20287;-71
2021/09/01 02:54:04;;;;;;;;;;;;;;;12.73;99.81;97939.84;1673868;85;20188;-76
2021/09/01 02:56:29;;;;;;;;;;;;;;;12.72;99.79;97943.66;1683970;85;20168;-76
2021/09/01 02:58:55;;;;;;;;;;;;;;;12.76;99.70;97941.98;1683852;85;20224;-76
2021/09/01 03:01:21;;;;;;;;;;;;;;;12.78;99.84;97943.85;1683867;84;21136;-72
2021/09/01 03:03:47;;;;;;;;;;;;;;;12.76;99.72;97947.42;1683831;84;20223;-73
2021/09/01 03:06:12;;;;;;;;;;;;;;;12.75;99.45;97951.25;1683704;85;20240;-71
2021/09/01 03:08:38;;;;;;;;;;;;;;;12.78;99.37;97959.36;1683777;85;20200;-76
2021/09/01 03:11:04;;;;;;;;;;;;;;;12.68;99.21;97958.97;1683693;85;20153;-71
2021/09/01 03:13:30;;;;;;;;;;;;;;;12.66;99.59;97957.91;1683788;85;20927;-76
2021/09/01 03:15:55;;;;;;;;;;;;;;;12.63;99.47;97966.63;1683654;85;20752;-76
2021/09/01 03:18:21;;;;;;;;;;;;;;;12.65;99.35;97964.45;1683824;85;20558;-71
2021/09/01 03:20:47;;;;;;;;;;;;;;;12.62;99.44;97965.56;1683724;85;20161;-71
2021/09/01 03:23:12;;;;;;;;;;;;;;;12.62;99.23;97962.85;1683787;85;20259;-71
2021/09/01 03:25:38;;;;;;;;;;;;;;;12.62;99.11;97961.49;1683793;85;21938;-76
2021/09/01 03:28:04;;;;;;;;;;;;;;;12.57;99.61;97969.19;1683912;85;20176;-76
2021/09/01 03:30:30;;;;;;;;;;;;;;;12.54;99.78;97972.47;1683786;85;20184;-76
2021/09/01 03:32:56;;;;;;;;;;;;;;;12.55;99.86;97969.20;1683896;85;20165;-76
2021/09/01 03:35:21;;;;;;;;;;;;;;;12.49;100.00;97975.28;1683730;85;20240;-76
2021/09/01 03:37:47;;;;;;;;;;;;;;;12.50;99.88;97976.89;1684033;85;21205;-76
2021/09/01 03:40:13;;;;;;;;;;;;;;;12.50;99.93;97980.97;1683532;85;20184;-71
2021/09/01 03:42:40;;;;;;;;;;;;;;;12.46;100.00;97986.71;1684038;84;20142;-71
2021/09/01 03:45:06;;;;;;;;;;;;;;;12.48;100.00;97992.69;1682662;85;20450;-76
2021/09/01 03:47:32;;;;;;;;;;;;;;;12.39;100.00;97981.66;1679584;85;20143;-71
2021/09/01 03:49:59;;;;;;;;;;;;;;;12.39;100.00;97995.77;1679569;85;21138;-71
2021/09/01 03:52:25;;;;;;;;;;;;;;;12.41;100.00;97994.40;1679634;84;20458;-77
2021/09/01 03:54:50;;;;;;;;;;;;;;;12.45;100.00;97996.52;1679475;84;20160;-76
2021/09/01 03:57:16;;;;;;;;;;;;;;;12.44;100.00;97998.43;1679811;84;20165;-71
2021/09/01 03:59:42;;;;;;;;;;;;;;;12.44;100.00;97997.07;1679634;84;20169;-71
2021/09/01 04:02:07;;;;;;;;;;;;;;;12.39;100.00;98000.68;1679698;85;21102;-76
2021/09/01 04:04:34;;;;;;;;;;;;;;;12.38;100.00;98011.81;1679604;84;20188;-76
2021/09/01 04:07:01;;;;;;;;;;;;;;;12.36;100.00;98005.88;1679694;84;20131;-71
2021/09/01 04:09:27;;;;;;;;;;;;;;;12.38;100.00;98008.55;1679470;85;20131;-76
2021/09/01 04:11:53;;;;;;;;;;;;;;;12.38;100.00;98013.98;1679925;85;20181;-72
2021/09/01 04:14:19;;;;;;;;;;;;;;;12.39;100.00;98017.51;1679544;84;21146;-71
2021/09/01 04:16:44;;;;;;;;;;;;;;;12.37;100.00;98013.73;1679789;84;20208;-76
2021/09/01 04:19:32;;;;;;;;;;;;;;;12.38;100.00;98019.42;1679637;85;20192;-71
2021/09/01 04:21:59;;;;;;;;;;;;;;;12.38;100.00;98015.89;1679917;84;20143;-71
2021/09/01 04:24:25;;;;;;;;;;;;;;;12.37;99.97;98024.59;1679731;84;20212;-76
2021/09/01 04:26:51;;;;;;;;;;;;;;;12.37;99.77;98020.52;1679936;84;21898;-72
2021/09/01 04:29:17;;;;;;;;;;;;;;;12.41;100.00;98032.44;1679607;84;20184;-71
2021/09/01 04:31:43;;;;;;;;;;;;;;;12.38;100.00;98027.57;1679568;85;20210;-76
2021/09/01 04:34:09;;;;;;;;;;;;;;;12.36;100.00;98035.77;1679720;84;20130;-72
2021/09/01 04:36:34;;;;;;;;;;;;;;;12.36;100.00;98037.93;1679737;84;20193;-76
2021/09/01 04:39:00;;;;;;;;;;;;;;;12.37;100.00;98044.17;1679787;84;21904;-71
2021/09/01 04:41:26;;;;;;;;;;;;;;;12.31;100.00;98046.16;1679566;84;20751;-76
2021/09/01 04:43:52;;;;;;;;;;;;;;;12.32;100.00;98049.69;1679704;84;20220;-77
2021/09/01 04:46:17;;;;;;;;;;;;;;;12.30;100.00;98049.95;1679501;85;20184;-76
2021/09/01 04:48:43;;;;;;;;;;;;;;;12.27;100.00;98049.73;1679854;85;20196;-76
2021/09/01 04:51:09;;;;;;;;;;;;;;;12.30;100.00;98051.30;1679708;85;21130;-71
2021/09/01 04:53:34;;;;;;;;;;;;;;;12.24;100.00;98052.48;1679863;84;20172;-77
2021/09/01 04:56:00;;;;;;;;;;;;;;;12.24;100.00;98051.13;1679724;84;20256;-72
2021/09/01 04:58:26;;;;;;;;;;;;;;;12.27;100.00;98053.80;1679771;85;20133;-72
2021/09/01 05:00:52;;;;;;;;;;;;;;;12.32;100.00;98058.64;1679774;84;20240;-76
2021/09/01 05:03:17;;;;;;;;;;;;;;;12.25;100.00;98060.89;1679811;84;21075;-72
2021/09/01 05:05:43;;;;;;;;;;;;;;;12.23;100.00;98065.81;1679614;84;20279;-72
2021/09/01 05:08:09;;;;;;;;;;;;;;;12.23;100.00;98065.81;1679736;84;20208;-77
2021/09/01 05:10:35;;;;;;;;;;;;;;;12.28;100.00;98062.21;1679667;84;20208;-76
2021/09/01 05:13:00;;;;;;;;;;;;;;;12.30;100.00;98065.44;1679795;84;20168;-71
2021/09/01 05:15:26;;;;;;;;;;;;;;;12.31;100.00;98063.82;1679806;84;21025;-76
2021/09/01 05:17:52;;;;;;;;;;;;;;;12.32;100.00;98071.42;1679818;84;20212;-72
2021/09/01 05:20:18;;;;;;;;;;;;;;;12.31;100.00;98071.16;1679464;84;20216;-71
2021/09/01 05:22:47;;;;;;;;;;;;;;;12.36;100.00;98071.08;1679791;85;20245;-76
2021/09/01 05:25:15;;;;;;;;;;;;;;;12.41;100.00;98073.75;1679532;84;20146;-76
2021/09/01 05:27:42;;;;;;;;;;;;;;;12.40;100.00;98074.30;1669871;85;20939;-76
2021/09/01 05:30:10;;;;;;;;;;;;;;;12.43;100.00;98076.98;1679577;84;20110;-71
2021/09/01 05:32:37;;;;;;;;;;;;;;;12.47;100.00;98078.56;1679861;84;20130;-76
2021/09/01 05:35:04;;;;;;;;;;;;;;;12.47;100.00;98078.01;1679544;84;20269;-72
2021/09/01 05:37:29;;;;;;;;;;;;;;;12.47;100.00;98081.28;1679862;84;20145;-71
2021/09/01 05:39:57;;;;;;;;;;;;;;;12.48;100.00;98083.73;1679635;84;21075;-72
2021/09/01 05:42:24;;;;;;;;;;;;;;;12.47;100.00;98081.28;1679446;85;20134;-76
2021/09/01 05:44:50;;;;;;;;;;;;;;;12.43;100.00;98083.78;1679518;85;20139;-71
2021/09/01 05:47:17;;;;;;;;;;;;;;;12.35;100.00;98094.73;1683215;85;20712;-76
2021/09/01 05:49:43;;;;;;;;;;;;;;;12.39;100.00;98090.36;1683825;85;20159;-76
2021/09/01 05:52:09;;;;;;;;;;;;;;;12.42;100.00;98093.03;1683606;85;20986;-76
2021/09/01 05:54:35;;;;;;;;;;;;;;;12.37;100.00;98093.89;1683742;85;20254;-71
2021/09/01 05:57:05;;;;;;;;;;;;;;;12.38;100.00;98098.22;1683784;84;20203;-76
2021/09/01 05:59:30;;;;;;;;;;;;;;;12.39;100.00;98097.15;1682852;84;20442;-71
2021/09/01 06:01:58;;;;;;;;;;;;;;;12.38;100.00;98101.48;1683756;84;20173;-76
2021/09/01 06:04:24;;;;;;;;;;;;;;;12.36;100.00;98107.77;1683723;85;21076;-76
2021/09/01 06:06:50;;;;;;;;;;;;;;;12.30;100.00;98112.44;1683796;84;20145;-73
2021/09/01 06:09:16;;;;;;;;;;;;;;;12.31;100.00;98113.27;1683741;84;20236;-72
2021/09/01 06:11:43;;;;;;;;;;;;;;;12.27;100.00;98114.94;1683805;85;20149;-72
2021/09/01 06:14:09;;;;;;;;;;;;;;;12.23;100.00;98118.79;1683814;85;20133;-76
2021/09/01 06:16:34;;;;;;;;;;;;;;;12.28;100.00;98122.79;1683746;85;21167;-76
2021/09/01 06:19:00;;;;;;;;;;;;;;;12.33;100.00;98120.58;1683785;85;20164;-72
2021/09/01 06:21:26;;;;;;;;;;;;;;;12.36;100.00;98130.86;1683794;85;20200;-76
2021/09/01 06:23:53;;;;;;;;;;;;;;;12.37;100.00;98136.56;1683802;84;20142;-76
2021/09/01 06:26:19;;;;;;;;;;;;;;;12.36;100.00;98137.11;1683763;84;20728;-71
2021/09/01 06:28:45;;;;;;;;;;;;;;;12.35;100.00;98138.76;1683688;85;21304;-77
2021/09/01 06:31:11;;;;;;;;;;;;;;;12.32;100.00;98141.52;1683619;85;20166;-77
2021/09/01 06:33:37;;;;;;;;;;;;;;;12.35;100.00;98141.48;1683908;85;20180;-72
2021/09/01 06:36:03;;;;;;;;;;;;;;;12.34;100.00;98138.50;1683717;85;20192;-76
2021/09/01 06:38:28;;;;;;;;;;;;;;;12.38;100.00;98151.20;1683869;84;20142;-72
2021/09/01 06:40:54;;;;;;;;;;;;;;;12.37;100.00;98148.78;1683759;85;21943;-76
2021/09/01 06:43:20;;;;;;;;;;;;;;;12.38;100.00;98147.13;1683766;84;20828;-71
2021/09/01 06:45:47;;;;;;;;;;;;;;;12.35;100.00;98155.06;1683279;84;20216;-71
2021/09/01 06:48:13;;;;;;;;;;;;;;;12.29;100.00;98157.01;1679721;85;20545;-76
2021/09/01 06:50:39;;;;;;;;;;;;;;;12.27;100.00;98157.85;1679646;84;20155;-76
2021/09/01 06:53:07;;;;;;;;;;;;;;;12.26;100.00;98154.88;1679684;84;21126;-76
2021/09/01 06:55:33;;;;;;;;;;;;;;;12.31;100.00;98165.71;1679591;84;20294;-71
2021/09/01 06:57:58;;;;;;;;;;;;;;;12.31;100.00;98164.90;1679710;84;20184;-77
2021/09/01 07:00:24;;;;;;;;;;;;;;;12.31;100.00;98172.50;1679699;84;20149;-76
2021/09/01 07:02:50;;;;;;;;;;;;;;;12.30;100.00;98175.48;1679898;84;20169;-72
2021/09/01 07:05:17;;;;;;;;;;;;;;;12.33;100.00;98184.44;1679514;84;21160;-72
2021/09/01 07:07:43;;;;;;;;;;;;;;;12.38;100.00;98178.94;1679807;84;20150;-71
2021/09/01 07:10:10;;;;;;;;;;;;;;;12.39;100.00;98180.55;1679433;84;20159;-71
2021/09/01 07:12:35;;;;;;;;;;;;;;;12.39;100.00;98185.98;1679537;85;20481;-71
2021/09/01 07:15:02;;;;;;;;;;;;;;;12.46;100.00;98189.18;1679614;84;20142;-76
2021/09/01 07:17:28;;;;;;;;;;;;;;;12.50;100.00;98194.31;1679459;84;21063;-76
2021/09/01 07:19:54;;;;;;;;;;;;;;;12.51;100.00;98194.57;1679596;84;20236;-71
2021/09/01 07:22:20;;;;;;;;;;;;;;;12.48;100.00;98209.30;1679552;84;20180;-72
2021/09/01 07:24:45;;;;;;;;;;;;;;;12.48;100.00;98203.31;1679561;85;20180;-77
2021/09/01 07:27:11;;;;;;;;;;;;;;;12.52;100.00;98202.98;1679577;84;20216;-77
2021/09/01 07:29:37;;;;;;;;;;;;;;;12.54;100.00;98214.92;1679548;84;21901;-76
2021/09/01 07:32:03;;;;;;;;;;;;;;;12.58;100.00;98210.55;1679897;84;20216;-72
2021/09/01 07:34:29;;;;;;;;;;;;;;;12.58;100.00;98207.83;1678652;84;20202;-72
2021/09/01 07:36:55;;;;;;;;;;;;;;;12.54;100.00;98214.38;1679502;84;20221;-77
2021/09/01 07:39:20;;;;;;;;;;;;;;;12.57;100.00;98219.25;1678644;84;20133;-74
2021/09/01 07:41:46;;;;;;;;;;;;;;;12.55;100.00;98215.98;1679303;84;20654;-76
2021/09/01 07:44:12;;;;;;;;;;;;;;;12.62;100.00;98221.09;1679374;84;20174;-76
2021/09/01 07:46:38;;;;;;;;;;;;;;;12.63;100.00;98221.35;1682114;84;20184;-71
2021/09/01 07:49:03;;;;;;;;;;;;;;;12.67;100.00;98223.22;1687175;84;20176;-71
2021/09/01 07:51:29;;;;;;;;;;;;;;;12.74;100.00;98236.48;1687231;85;20165;-77
2021/09/01 07:53:55;;;;;;;;;;;;;;;12.66;99.45;98236.55;1687198;84;21103;-77
2021/09/01 07:56:21;;;;;;;;;;;;;;;12.70;99.58;98239.50;1687099;84;20200;-76
2021/09/01 07:58:46;;;;;;;;;;;;;;;12.70;99.63;98245.74;1687297;84;20180;-72
2021/09/01 08:01:12;;;;;;;;;;;;;;;12.67;99.66;98242.80;1687265;84;20153;-77
2021/09/01 08:03:38;;;;;;;;;;;;;;;12.61;99.83;98250.73;1687435;85;20248;-76
2021/09/01 08:06:06;;;;;;;;;;;;;;;12.63;99.64;98249.34;1687442;84;21073;-71
2021/09/01 08:08:31;;;;;;;;;;;;;;;12.66;99.43;98256.95;1687183;85;20150;-72
2021/09/01 08:10:59;;;;;;;;;;;;;;;12.65;99.64;98256.69;1687460;84;20287;-77
2021/09/01 08:13:24;;;;;;;;;;;;;;;12.62;99.75;98255.87;1687300;85;20138;-72
2021/09/01 08:15:50;;;;;;;;;;;;;;;12.62;99.68;98261.32;1687443;84;20251;-77
2021/09/01 08:18:16;;;;;;;;;;;;;;;12.59;99.85;98271.42;1687162;84;21215;-71
2021/09/01 08:20:42;;;;;;;;;;;;;;;12.58;100.00;98273.06;1687353;84;20168;-72
2021/09/01 08:23:07;;;;;;;;;;;;;;;12.56;99.67;98265.73;1687478;84;20232;-71
2021/09/01 08:25:33;;;;;;;;;;;;;;;12.59;99.80;98262.45;1687448;84;20152;-77
2021/09/01 08:27:59;;;;;;;;;;;;;;;12.57;99.87;98266.83;1687112;84;20141;-71
2021/09/01 08:30:25;;;;;;;;;;;;;;;12.56;100.00;98269.80;1687444;84;21147;-76
2021/09/01 08:32:50;;;;;;;;;;;;;;;12.62;100.00;98277.63;1687076;84;20661;-77
2021/09/01 08:35:16;;;;;;;;;;;;;;;12.63;100.00;98284.69;1687043;84;20240;-71
2021/09/01 08:37:42;;;;;;;;;;;;;;;12.60;100.00;98278.47;1687228;84;20164;-73
2021/09/01 08:40:08;;;;;;;;;;;;;;;12.65;99.99;98286.59;1687174;84;20231;-72
2021/09/01 08:42:35;;;;;;;;;;;;;;;12.58;100.00;98292.09;1687249;85;21103;-76
2021/09/01 08:45:01;;;;;;;;;;;;;;;12.68;100.00;98294.16;1687169;84;20142;-76
2021/09/01 08:47:27;;;;;;;;;;;;;;;12.68;100.00;98305.04;1687138;84;20186;-76
2021/09/01 08:49:52;;;;;;;;;;;;;;;12.65;100.00;98305.62;1687236;84;20185;-71
2021/09/01 08:52:18;;;;;;;;;;;;;;;12.62;100.00;98306.17;1687330;84;20168;-71
2021/09/01 08:54:44;;;;;;;;;;;;;;;12.66;99.87;98309.16;1687170;84;21087;-77
2021/09/01 08:57:12;;;;;;;;;;;;;;;12.55;100.00;98315.20;1687193;84;20187;-76
2021/09/01 08:59:38;;;;;;;;;;;;;;;12.56;100.00;98315.49;1687214;84;20146;-76
2021/09/01 09:02:03;;;;;;;;;;;;;;;12.60;99.88;98321.16;1687265;84;20195;-76
2021/09/01 09:04:32;;;;;;;;;;;;;;;12.60;99.96;98321.97;1687150;84;20244;-72
2021/09/01 09:07:02;;;;;;;;;;;;;;;12.63;100.00;98331.45;1687300;84;21161;-76
2021/09/01 09:09:29;;;;;;;;;;;;;;;12.62;99.95;98326.56;1687147;84;20130;-76
2021/09/01 09:11:57;;;;;;;;;;;;;;;12.64;99.75;98331.70;1687290;85;20138;-71
2021/09/01 09:14:28;;;;;;;;;;;;;;;12.61;100.00;98342.61;1687119;85;20193;-71
2021/09/01 09:17:13;;;;;;;;;;;;;;;12.58;100.00;98338.31;1687103;84;20182;-71
2021/09/01 09:19:52;;;;;;;;;;;;;;;12.58;100.00;98347.82;1687191;84;21142;-71
2021/09/01 09:22:30;;;;;;;;;;;;;;;12.63;100.00;98341.77;1687231;84;20197;-76
2021/09/01 09:25:08;;;;;;;;;;;;;;;12.66;100.00;98340.41;1687287;84;20170;-76
2021/09/01 09:27:44;;;;;;;;;;;;;;;12.70;100.00;98336.02;1687226;85;20590;-76
2021/09/01 09:30:23;;;;;;;;;;;;;;;12.63;100.00;98339.06;1687204;85;20138;-76
2021/09/01 09:33:01;;;;;;;;;;;;;;;12.62;100.00;98342.88;1687210;84;21226;-72
2021/09/01 09:35:47;;;;;;;;;;;;;;;12.58;100.00;98349.99;1687216;84;20150;-76
2021/09/01 09:38:12;;;;;;;;;;;;;;;12.65;100.00;98349.13;1672015;85;20413;-77
2021/09/01 09:40:38;;;;;;;;;;;;;;;12.69;100.00;98351.52;1687331;84;20578;-76
2021/09/01 09:43:14;;;;;;;;;;;;;;;12.73;99.83;98347.67;1687074;84;20184;-76
2021/09/01 09:45:40;;;;;;;;;;;;;;;12.70;99.34;98344.17;1687431;85;22015;-71
2021/09/01 09:48:06;;;;;;;;;;;;;;;12.75;99.65;98348.77;1684583;84;20192;-74
2021/09/01 09:50:32;;;;;;;;;;;;;;;12.71;99.23;98353.40;1683858;85;20166;-76
2021/09/01 09:52:57;;;;;;;;;;;;;;;12.77;99.56;98357.44;1683718;85;20156;-72
2021/09/01 09:55:24;;;;;;;;;;;;;;;12.80;99.45;98367.73;1683851;85;20216;-72
2021/09/01 09:57:54;;;;;;;;;;;;;;;12.80;99.12;98364.47;1683754;85;21750;-72
2021/09/01 10:00:21;;;;;;;;;;;;;;;12.81;99.24;98370.16;1683587;85;20202;-76
2021/09/01 10:02:47;;;;;;;;;;;;;;;12.81;99.33;98370.72;1683646;85;20155;-72
2021/09/01 10:05:14;;;;;;;;;;;;;;;12.80;99.40;98375.89;1683647;85;20414;-76
2021/09/01 10:07:40;;;;;;;;;;;;;;;12.79;99.68;98378.36;1683805;85;20074;-71
2021/09/01 10:10:07;;;;;;;;;;;;;;;12.77;99.77;98388.16;1683573;85;21035;-76
2021/09/01 10:12:41;;;;;;;;;;;;;;;12.87;98.97;98383.18;1683645;85;20185;-76
2021/09/01 10:15:09;;;;;;;;;;;;;;;12.88;99.08;98388.88;1683644;85;20142;-76
2021/09/01 10:17:38;;;;;;;;;;;;;;;12.91;98.63;98385.06;1683567;85;20469;-76
2021/09/01 10:20:04;;;;;;;;;;;;;;;12.94;98.68;98385.02;1683414;84;20178;-73
2021/09/01 10:22:29;;;;;;;;;;;;;;;13.00;98.65;98381.17;1683659;84;21821;-76
2021/09/01 10:24:55;;;;;;;;;;;;;;;13.04;98.52;98382.75;1683546;84;20184;-74
2021/09/01 10:27:28;;;;;;;;;;;;;;;13.12;98.55;98394.38;1673912;85;20172;-76
2021/09/01 10:30:08;;;;;;;;;;;;;;;13.22;98.43;98391.58;1683564;84;20158;-76
2021/09/01 10:32:44;;;;;;;;;;;;;;;13.27;98.28;98391.55;1683783;85;20500;-76
2021/09/01 10:35:18;;;;;;;;;;;;;;;13.33;97.75;98394.48;1683535;85;21082;-71
2021/09/01 10:37:43;;;;;;;;;;;;;;;13.33;97.09;98401.80;1683540;84;20122;-71
2021/09/01 10:40:14;;;;;;;;;;;;;;;13.38;97.20;98408.02;1683564;85;20146;-76
2021/09/01 10:42:43;;;;;;;;;;;;;;;13.41;96.49;98411.52;1683724;85;20114;-76
2021/09/01 10:45:14;;;;;;;;;;;;;;;13.45;96.39;98413.94;1683571;85;20142;-71
2021/09/01 10:48:02;;;;;;;;;;;;;;;13.62;96.78;98419.48;1683571;85;21784;-71
2021/09/01 10:50:33;;;;;;;;;;;;;;;13.73;96.38;98416.34;1683641;85;20269;-76
2021/09/01 10:53:02;;;;;;;;;;;;;;;13.74;94.55;98423.95;1683608;85;20425;-71
2021/09/01 10:55:28;;;;;;;;;;;;;;;13.92;95.90;98417.73;1683888;85;20138;-71
2021/09/01 10:58:19;;;;;;;;;;;;;;;14.04;95.81;98428.23;1683663;85;20186;-71
2021/09/01 11:00:51;;;;;;;;;;;;;;;14.07;93.47;98435.81;1683944;85;21185;-76
2021/09/01 11:03:30;;;;;;;;;;;;;;;14.31;94.47;98428.41;1683480;85;20163;-71
2021/09/01 11:05:56;;;;;;;;;;;;;;;14.41;92.08;98439.72;1683959;85;20090;-76
2021/09/01 11:08:21;;;;;;;;;;;;;;;14.70;93.86;98427.86;1683533;85;20775;-76
2021/09/01 11:10:55;;;;;;;;;;;;;;;14.77;91.62;98432.39;1683870;84;20160;-72
2021/09/01 11:13:20;;;;;;;;;;;;;;;14.92;92.66;98438.42;1683506;85;21052;-71
2021/09/01 11:15:46;;;;;;;;;;;;;;;14.87;91.09;98445.34;1683862;85;20276;-76
2021/09/01 11:18:12;;;;;;;;;;;;;;;14.77;90.05;98435.93;1683550;84;20279;-73
2021/09/01 11:20:52;;;;;;;;;;;;;;;14.60;89.31;98443.27;1683925;84;20172;-72
2021/09/01 11:23:26;;;;;;;;;;;;;;;14.64;90.47;98446.23;1683102;85;20150;-76
2021/09/01 11:25:52;;;;;;;;;;;;;;;14.53;89.88;98447.50;1683890;85;21129;-71
2021/09/01 11:28:17;;;;;;;;;;;;;;;14.58;90.49;98454.23;1683454;85;20200;-71
2021/09/01 11:30:43;;;;;;;;;;;;;;;14.53;90.19;98456.49;1683933;84;20712;-76
2021/09/01 11:33:13;;;;;;;;;;;;;;;14.53;90.88;98456.49;1683969;85;20152;-76
2021/09/01 11:35:38;;;;;;;;;;;;;;;14.51;90.72;98461.41;1683902;85;20134;-71
2021/09/01 11:38:06;;;;;;;;;;;;;;;14.38;90.46;98468.94;1683808;85;21134;-76
2021/09/01 11:40:34;;;;;;;;;;;;;;;14.29;90.75;98467.42;1683860;85;20174;-76
2021/09/01 11:43:00;;;;;;;;;;;;;;;14.32;91.67;98473.64;1682008;84;20138;-76
2021/09/01 11:45:26;;;;;;;;;;;;;;;14.29;91.59;98472.06;1683675;84;20153;-71
2021/09/01 11:47:57;;;;;;;;;;;;;;;14.23;91.73;98473.22;1683885;85;20165;-71
2021/09/01 11:50:23;;;;;;;;;;;;;;;14.20;92.08;98469.73;1674075;85;21269;-76
2021/09/01 11:52:51;;;;;;;;;;;;;;;14.18;92.05;98465.91;1683815;85;20401;-76
2021/09/01 11:55:24;;;;;;;;;;;;;;;14.15;91.94;98465.70;1683116;84;20421;-71
2021/09/01 11:57:50;;;;;;;;;;;;;;;14.12;91.78;98472.55;1683793;85;20493;-71
2021/09/01 12:00:16;;;;;;;;;;;;;;;14.09;90.60;98482.09;1683664;85;20240;-76
2021/09/01 12:02:41;;;;;;;;;;;;;;;13.96;90.76;98482.00;1683791;85;21134;-72
2021/09/01 12:05:08;;;;;;;;;;;;;;;13.98;91.26;98479.80;1683699;85;20244;-71
2021/09/01 12:07:36;;;;;;;;;;;;;;;14.05;92.02;98482.43;1674107;85;20193;-71
2021/09/01 12:10:05;;;;;;;;;;;;;;;14.08;91.92;98483.20;1683692;85;20138;-71
2021/09/01 12:12:40;;;;;;;;;;;;;;;14.17;91.55;98485.28;1683977;85;20098;-72
2021/09/01 12:15:14;;;;;;;;;;;;;;;14.29;91.80;98482.97;1683726;85;22051;-71
2021/09/01 12:17:45;;;;;;;;;;;;;;;14.44;90.40;98491.47;1683859;85;20143;-71
2021/09/01 12:20:14;;;;;;;;;;;;;;;14.63;91.29;98491.80;1682169;85;20170;-72
2021/09/01 12:22:41;;;;;;;;;;;;;;;14.84;90.91;98486.03;1683507;85;20494;-76
2021/09/01 12:25:09;;;;;;;;;;;;;;;15.06;91.07;98483.51;1683769;85;20102;-76
2021/09/01 12:27:35;;;;;;;;;;;;;;;15.31;90.62;98486.94;1683827;85;21820;-72
2021/09/01 12:30:01;;;;;;;;;;;;;;;15.34;87.02;98489.86;1683650;85;20138;-72
2021/09/01 12:32:27;;;;;;;;;;;;;;;15.21;86.70;98487.36;1683971;85;20147;-76
2021/09/01 12:34:55;;;;;;;;;;;;;;;15.20;88.07;98487.08;1683588;85;20141;-76
2021/09/01 12:37:30;;;;;;;;;;;;;;;15.12;87.42;98489.12;1683983;85;20142;-72
2021/09/01 12:40:06;;;;;;;;;;;;;;;15.09;88.24;98493.02;1683824;84;21079;-76
2021/09/01 12:42:40;;;;;;;;;;;;;;;15.08;89.24;98485.94;1683755;85;20143;-71